createdAt,value
2017-06-27T00:01:18.621Z,91.90
2017-06-27T00:03:46.117Z,91.40
2017-06-27T00:06:14.360Z,91.80
2017-06-27T00:08:41.837Z,91.80
2017-06-27T00:11:09.353Z,91.90
2017-06-27T00:13:36.832Z,92.00
2017-06-27T00:16:04.308Z,92.50
2017-06-27T00:18:31.800Z,92.70
2017-06-27T00:20:59.339Z,92.50
2017-06-27T00:23:27.769Z,91.90
2017-06-27T00:25:55.310Z,91.90
2017-06-27T00:28:22.781Z,92.30
2017-06-27T00:30:50.257Z,92.40
2017-06-27T00:33:17.752Z,92.50
2017-06-27T00:35:45.993Z,92.30
2017-06-27T00:38:13.464Z,92.60
2017-06-27T00:40:40.997Z,92.30
2017-06-27T00:43:08.749Z,92.50
2017-06-27T00:45:36.513Z,92.50
2017-06-27T00:48:04.045Z,92.00
2017-06-27T00:50:31.553Z,92.10
2017-06-27T00:52:59.061Z,92.30
2017-06-27T00:55:26.593Z,93.10
2017-06-27T00:57:54.869Z,93.40
2017-06-27T01:00:23.146Z,93.80
2017-06-27T01:02:51.413Z,94.00
2017-06-27T01:05:18.885Z,94.00
2017-06-27T01:07:47.125Z,94.10
2017-06-27T01:10:14.628Z,94.10
2017-06-27T01:12:42.104Z,94.10
2017-06-27T01:15:09.580Z,94.10
2017-06-27T01:17:37.076Z,94.20
2017-06-27T01:20:05.312Z,94.00
2017-06-27T01:22:32.785Z,94.00
2017-06-27T01:25:00.280Z,94.00
2017-06-27T01:27:28.800Z,93.70
2017-06-27T01:29:56.268Z,93.70
2017-06-27T01:32:23.760Z,93.80
2017-06-27T01:34:51.996Z,94.40
2017-06-27T01:37:19.496Z,94.10
2017-06-27T01:39:48.184Z,93.90
2017-06-27T01:42:16.424Z,93.70
2017-06-27T01:44:43.893Z,93.70
2017-06-27T01:47:11.380Z,93.80
2017-06-27T01:49:38.848Z,93.80
2017-06-27T01:52:06.321Z,93.90
2017-06-27T01:54:33.818Z,94.10
2017-06-27T01:57:01.284Z,94.00
2017-06-27T01:59:28.756Z,94.00
2017-06-27T02:01:57.025Z,94.10
2017-06-27T02:04:24.501Z,94.10
2017-06-27T02:06:52.773Z,94.00
2017-06-27T02:09:21.033Z,94.20
2017-06-27T02:11:48.503Z,94.20
2017-06-27T02:14:16.740Z,94.10
2017-06-27T02:16:44.636Z,94.10
2017-06-27T02:19:12.880Z,94.30
2017-06-27T02:21:40.356Z,94.20
2017-06-27T02:24:07.845Z,94.20
2017-06-27T02:26:35.317Z,94.20
2017-06-27T02:29:02.789Z,94.00
2017-06-27T02:31:30.288Z,93.90
2017-06-27T02:33:57.757Z,93.80
2017-06-27T02:36:26.029Z,94.00
2017-06-27T02:38:54.292Z,94.00
2017-06-27T02:41:21.764Z,93.90
2017-06-27T02:43:49.997Z,93.80
2017-06-27T02:46:17.502Z,93.80
2017-06-27T02:48:45.735Z,94.30
2017-06-27T02:51:13.476Z,94.30
2017-06-27T02:53:40.985Z,94.10
2017-06-27T02:56:09.221Z,94.30
2017-06-27T02:58:36.716Z,94.00
2017-06-27T03:01:04.973Z,94.40
2017-06-27T03:03:32.444Z,94.50
2017-06-27T03:05:59.908Z,94.40
2017-06-27T03:08:28.437Z,94.50
2017-06-27T03:10:55.909Z,94.50
2017-06-27T03:13:23.377Z,94.50
2017-06-27T03:15:50.865Z,94.40
2017-06-27T03:18:19.101Z,94.50
2017-06-27T03:20:46.568Z,94.20
2017-06-27T03:23:14.061Z,94.10
2017-06-27T03:25:42.296Z,94.20
2017-06-27T03:28:09.765Z,94.20
2017-06-27T03:30:37.257Z,94.20
2017-06-27T03:33:04.728Z,94.30
2017-06-27T03:35:32.205Z,94.40
2017-06-27T03:37:59.694Z,94.40
2017-06-27T03:40:27.207Z,94.50
2017-06-27T03:42:54.688Z,94.40
2017-06-27T03:45:22.221Z,94.30
2017-06-27T03:47:50.385Z,94.10
2017-06-27T03:50:17.861Z,94.20
2017-06-27T03:52:45.412Z,94.60
2017-06-27T03:55:12.888Z,94.10
2017-06-27T03:57:40.352Z,94.20
2017-06-27T04:00:07.848Z,94.20
2017-06-27T04:02:36.088Z,94.00
2017-06-27T04:05:03.556Z,94.00
2017-06-27T04:07:31.044Z,93.90
2017-06-27T04:09:59.277Z,93.90
2017-06-27T04:12:26.746Z,93.90
2017-06-27T04:14:54.236Z,94.00
2017-06-27T04:17:22.029Z,94.30
2017-06-27T04:19:49.496Z,94.20
2017-06-27T04:22:16.989Z,94.20
2017-06-27T04:24:44.456Z,93.90
2017-06-27T04:27:12.728Z,94.20
2017-06-27T04:29:40.984Z,94.00
2017-06-27T04:32:08.452Z,94.00
2017-06-27T04:34:35.922Z,94.10
2017-06-27T04:37:04.229Z,93.80
2017-06-27T04:39:31.708Z,93.90
2017-06-27T04:41:59.180Z,93.90
2017-06-27T04:44:26.668Z,94.00
2017-06-27T04:46:54.904Z,94.00
2017-06-27T04:49:22.752Z,94.00
2017-06-27T04:51:50.237Z,94.10
2017-06-27T04:54:17.921Z,94.10
2017-06-27T04:56:46.161Z,93.80
2017-06-27T04:59:13.652Z,93.90
2017-06-27T05:01:41.121Z,93.90
2017-06-27T05:04:09.357Z,93.30
2017-06-27T05:06:36.845Z,93.20
2017-06-27T05:09:05.081Z,93.50
2017-06-27T05:11:32.552Z,93.40
2017-06-27T05:14:00.040Z,93.60
2017-06-27T05:16:28.272Z,93.80
2017-06-27T05:18:55.745Z,93.80
2017-06-27T05:21:23.237Z,94.00
2017-06-27T05:23:51.472Z,94.00
2017-06-27T05:26:18.940Z,94.00
2017-06-27T05:28:46.428Z,93.10
2017-06-27T05:31:13.901Z,93.50
2017-06-27T05:33:41.377Z,93.70
2017-06-27T05:36:08.865Z,93.70
2017-06-27T05:38:36.333Z,93.60
2017-06-27T05:41:04.148Z,93.80
2017-06-27T05:43:32.017Z,94.00
2017-06-27T05:45:59.484Z,93.50
2017-06-27T05:48:26.984Z,93.70
2017-06-27T05:50:55.564Z,93.40
2017-06-27T05:53:24.092Z,93.00
2017-06-27T05:55:51.565Z,92.80
2017-06-27T05:58:19.064Z,92.50
2017-06-27T06:00:47.297Z,92.10
2017-06-27T06:03:15.045Z,91.80
2017-06-27T06:05:42.537Z,91.00
2017-06-27T06:08:10.013Z,90.20
2017-06-27T06:10:38.541Z,90.20
2017-06-27T06:13:06.305Z,90.20
2017-06-27T06:15:33.781Z,91.00
2017-06-27T06:18:01.249Z,90.20
2017-06-27T06:20:29.393Z,90.10
2017-06-27T06:22:56.865Z,90.30
2017-06-27T06:25:24.333Z,91.00
2017-06-27T06:27:51.916Z,90.70
2017-06-27T06:30:20.152Z,91.10
2017-06-27T06:32:47.629Z,91.10
2017-06-27T06:35:15.120Z,91.60
2017-06-27T06:37:43.632Z,90.80
2017-06-27T06:40:11.193Z,90.80
2017-06-27T06:42:38.680Z,91.00
2017-06-27T06:45:06.153Z,91.60
2017-06-27T06:47:33.622Z,91.40
2017-06-27T06:50:01.972Z,91.00
2017-06-27T06:52:29.444Z,91.00
2017-06-27T06:54:56.914Z,91.50
2017-06-27T06:57:25.180Z,91.60
2017-06-27T06:59:52.652Z,91.60
2017-06-27T07:02:20.887Z,90.60
2017-06-27T07:04:48.377Z,90.60
2017-06-27T07:07:16.616Z,91.10
2017-06-27T07:09:44.085Z,91.10
2017-06-27T07:12:11.576Z,90.70
2017-06-27T07:14:39.813Z,90.20
2017-06-27T07:17:07.362Z,90.20
2017-06-27T07:19:34.841Z,90.30
2017-06-27T07:22:02.313Z,91.20
2017-06-27T07:24:30.552Z,90.20
2017-06-27T07:26:58.041Z,90.20
2017-06-27T07:29:26.276Z,88.90
2017-06-27T07:31:53.748Z,88.90
2017-06-27T07:34:21.237Z,87.60
2017-06-27T07:36:49.502Z,86.30
2017-06-27T07:39:17.778Z,90.00
2017-06-27T07:41:46.041Z,87.60
2017-06-27T07:44:13.518Z,87.60
2017-06-27T07:46:41.752Z,87.40
2017-06-27T07:49:09.245Z,87.40
2017-06-27T07:51:37.507Z,85.20
2017-06-27T07:54:04.977Z,85.20
2017-06-27T07:56:33.604Z,85.10
2017-06-27T07:59:01.076Z,85.10
2017-06-27T08:01:28.548Z,82.80
2017-06-27T08:03:57.653Z,84.00
2017-06-27T08:06:25.123Z,83.90
2017-06-27T08:08:53.652Z,84.90
2017-06-27T08:11:21.145Z,84.80
2017-06-27T08:13:48.616Z,84.50
2017-06-27T08:16:16.088Z,84.20
2017-06-27T08:18:44.397Z,84.30
2017-06-27T08:21:11.902Z,84.40
2017-06-27T08:23:39.373Z,83.40
2017-06-27T08:26:07.637Z,82.10
2017-06-27T08:28:35.104Z,82.10
2017-06-27T08:31:03.374Z,83.50
2017-06-27T08:33:31.686Z,82.90
2017-06-27T08:35:59.194Z,82.80
2017-06-27T08:38:26.660Z,82.30
2017-06-27T08:40:54.229Z,82.30
2017-06-27T08:43:22.476Z,82.90
2017-06-27T08:45:49.945Z,82.80
2017-06-27T08:48:17.474Z,81.40
2017-06-27T08:50:44.949Z,80.40
2017-06-27T08:53:12.417Z,76.60
2017-06-27T08:55:39.946Z,77.70
2017-06-27T08:58:07.454Z,76.40
2017-06-27T09:00:34.965Z,73.70
2017-06-27T09:03:02.886Z,74.10
2017-06-27T09:05:31.120Z,70.80
2017-06-27T09:07:58.621Z,70.60
2017-06-27T09:10:26.150Z,70.50
2017-06-27T09:12:53.658Z,71.70
2017-06-27T09:15:21.133Z,70.10
2017-06-27T09:17:48.661Z,69.70
2017-06-27T09:20:16.170Z,71.10
2017-06-27T09:22:43.682Z,71.30
2017-06-27T09:25:11.176Z,68.80
2017-06-27T09:27:38.645Z,71.30
2017-06-27T09:30:06.146Z,66.00
2017-06-27T09:32:33.674Z,69.70
2017-06-27T09:35:01.941Z,65.50
2017-06-27T09:37:29.446Z,65.60
2017-06-27T09:39:57.024Z,66.50
2017-06-27T09:42:24.554Z,63.20
2017-06-27T09:44:52.040Z,64.20
2017-06-27T09:47:19.531Z,66.80
2017-06-27T09:49:47.000Z,67.50
2017-06-27T09:52:15.238Z,63.20
2017-06-27T09:54:42.728Z,63.20
2017-06-27T09:57:10.196Z,66.20
2017-06-27T09:59:38.434Z,62.40
2017-06-27T10:02:05.929Z,62.20
2017-06-27T10:04:34.168Z,65.00
2017-06-27T10:07:01.633Z,65.00
2017-06-27T10:09:29.138Z,63.80
2017-06-27T10:11:56.609Z,65.90
2017-06-27T10:14:24.076Z,64.60
2017-06-27T10:16:51.564Z,63.90
2017-06-27T10:19:19.037Z,65.00
2017-06-27T10:21:47.280Z,65.20
2017-06-27T10:24:14.773Z,64.40
2017-06-27T10:26:43.009Z,58.10
2017-06-27T10:29:10.477Z,57.40
2017-06-27T10:31:37.972Z,61.40
2017-06-27T10:34:06.233Z,59.70
2017-06-27T10:36:33.703Z,59.70
2017-06-27T10:39:01.974Z,62.60
2017-06-27T10:41:30.208Z,61.70
2017-06-27T10:43:57.677Z,61.60
2017-06-27T10:46:25.168Z,61.60
2017-06-27T10:48:53.401Z,57.20
2017-06-27T10:51:20.873Z,57.20
2017-06-27T10:53:48.364Z,56.80
2017-06-27T10:56:15.841Z,56.00
2017-06-27T10:58:43.357Z,58.30
2017-06-27T11:01:11.618Z,49.10
2017-06-27T11:03:39.085Z,49.10
2017-06-27T11:06:06.560Z,49.90
2017-06-27T11:08:34.821Z,49.40
2017-06-27T11:11:03.065Z,47.40
2017-06-27T11:13:30.536Z,47.30
2017-06-27T11:15:58.024Z,45.80
2017-06-27T11:18:25.568Z,44.40
2017-06-27T11:20:54.108Z,45.80
2017-06-27T11:23:21.601Z,45.80
2017-06-27T11:25:49.069Z,48.50
2017-06-27T11:28:17.337Z,49.20
2017-06-27T11:30:45.608Z,41.90
2017-06-27T11:33:13.076Z,42.10
2017-06-27T11:35:41.317Z,45.80
2017-06-27T11:38:08.809Z,45.70
2017-06-27T11:40:37.046Z,49.10
2017-06-27T11:43:04.521Z,49.00
2017-06-27T11:45:32.016Z,47.60
2017-06-27T11:47:59.800Z,49.20
2017-06-27T11:50:27.273Z,47.70
2017-06-27T11:52:54.765Z,48.80
2017-06-27T11:55:23.004Z,44.40
2017-06-27T11:57:50.473Z,44.40
2017-06-27T12:00:29.905Z,46.70
2017-06-27T12:02:57.372Z,44.80
2017-06-27T12:05:36.765Z,45.00
2017-06-27T12:08:07.057Z,42.00
2017-06-27T12:10:35.302Z,45.90
2017-06-27T12:13:03.201Z,45.90
2017-06-27T12:15:31.697Z,47.50
2017-06-27T12:17:59.165Z,47.50
2017-06-27T12:20:26.688Z,47.80
2017-06-27T12:22:54.152Z,48.10
2017-06-27T12:25:22.388Z,47.90
2017-06-27T12:27:50.589Z,47.80
2017-06-27T12:30:18.156Z,51.30
2017-06-27T12:32:46.393Z,49.60
2017-06-27T12:35:13.885Z,49.50
2017-06-27T12:37:42.124Z,47.50
2017-06-27T12:40:09.594Z,46.70
2017-06-27T12:42:37.085Z,47.30
2017-06-27T12:45:05.356Z,48.90
2017-06-27T12:47:33.630Z,45.80
2017-06-27T12:50:01.922Z,48.70
2017-06-27T12:52:29.423Z,48.60
2017-06-27T12:54:56.926Z,49.80
2017-06-27T12:57:25.225Z,52.00
2017-06-27T12:59:52.726Z,52.00
2017-06-27T13:02:20.462Z,52.70
2017-06-27T13:04:47.953Z,51.50
2017-06-27T13:07:15.421Z,51.60
2017-06-27T13:09:42.922Z,51.90
2017-06-27T13:12:10.462Z,51.60
2017-06-27T13:14:37.942Z,51.90
2017-06-27T13:17:05.412Z,52.20
2017-06-27T13:19:33.325Z,52.10
2017-06-27T13:22:01.852Z,49.30
2017-06-27T13:24:29.321Z,49.40
2017-06-27T13:26:57.073Z,49.60
2017-06-27T13:29:24.540Z,48.30
2017-06-27T13:31:52.009Z,48.00
2017-06-27T13:34:19.503Z,50.20
2017-06-27T13:36:47.777Z,50.60
2017-06-27T13:39:16.012Z,50.80
2017-06-27T13:41:43.505Z,50.80
2017-06-27T13:44:11.741Z,49.00
2017-06-27T13:46:39.209Z,48.90
2017-06-27T13:49:06.944Z,50.20
2017-06-27T13:51:34.416Z,47.60
2017-06-27T13:54:01.888Z,48.90
2017-06-27T13:56:29.377Z,49.20
2017-06-27T13:58:57.610Z,51.00
2017-06-27T14:01:25.078Z,51.00
2017-06-27T14:03:52.569Z,51.20
2017-06-27T14:06:20.805Z,50.70
2017-06-27T14:08:48.272Z,50.80
2017-06-27T14:11:15.769Z,50.00
2017-06-27T14:13:43.237Z,50.40
2017-06-27T14:16:10.708Z,50.30
2017-06-27T14:18:38.208Z,46.20
2017-06-27T14:21:14.715Z,47.50
2017-06-27T14:23:42.250Z,46.90
2017-06-27T14:26:10.522Z,46.90
2017-06-27T14:28:39.048Z,47.30
2017-06-27T14:31:07.011Z,47.30
2017-06-27T14:33:34.876Z,45.40
2017-06-27T14:36:02.380Z,44.70
2017-06-27T14:38:29.869Z,46.50
2017-06-27T14:40:57.381Z,46.20
2017-06-27T14:43:24.852Z,43.20
2017-06-27T14:45:52.346Z,44.50
2017-06-27T14:48:19.823Z,44.90
2017-06-27T14:50:47.588Z,44.50
2017-06-27T14:53:15.353Z,45.00
2017-06-27T14:55:42.825Z,47.60
2017-06-27T14:58:10.353Z,47.10
2017-06-27T15:00:37.856Z,46.40
2017-06-27T15:03:05.445Z,45.10
2017-06-27T15:05:33.680Z,48.40
2017-06-27T15:08:01.173Z,48.50
2017-06-27T15:10:29.429Z,50.00
2017-06-27T15:12:56.907Z,50.00
2017-06-27T15:15:25.165Z,51.10
2017-06-27T15:17:52.636Z,51.10
2017-06-27T15:20:20.872Z,51.40
2017-06-27T15:22:48.360Z,51.40
2017-06-27T15:25:15.829Z,51.10
2017-06-27T15:27:44.069Z,50.70
2017-06-27T15:30:11.565Z,50.70
2017-06-27T15:32:39.897Z,53.50
2017-06-27T15:35:07.403Z,53.50
2017-06-27T15:37:35.661Z,53.90
2017-06-27T15:40:03.901Z,56.20
2017-06-27T15:42:31.653Z,56.10
2017-06-27T15:44:59.145Z,54.10
2017-06-27T15:47:27.396Z,55.90
2017-06-27T15:49:55.092Z,55.90
2017-06-27T15:52:23.355Z,57.70
2017-06-27T15:54:50.829Z,56.90
2017-06-27T15:57:19.065Z,56.90
2017-06-27T15:59:46.555Z,56.30
2017-06-27T16:02:14.798Z,56.80
2017-06-27T16:04:42.265Z,56.70
2017-06-27T16:07:09.752Z,57.10
2017-06-27T16:09:37.992Z,55.30
2017-06-27T16:12:05.734Z,55.30
2017-06-27T16:14:33.224Z,56.10
2017-06-27T16:17:00.692Z,57.00
2017-06-27T16:19:29.761Z,55.30
2017-06-27T16:22:00.209Z,56.80
2017-06-27T16:24:34.809Z,56.80
2017-06-27T16:27:11.308Z,57.10
2017-06-27T16:29:43.434Z,58.00
2017-06-27T16:32:15.767Z,58.20
2017-06-27T16:34:48.280Z,58.20
2017-06-27T16:37:16.592Z,59.20
2017-06-27T16:39:44.829Z,59.00
2017-06-27T16:42:12.297Z,59.00
2017-06-27T16:44:39.792Z,59.70
2017-06-27T16:47:08.029Z,59.30
2017-06-27T16:49:35.500Z,59.30
2017-06-27T16:52:02.992Z,60.10
2017-06-27T16:54:30.465Z,60.20
2017-06-27T16:56:57.939Z,59.60
2017-06-27T16:59:25.424Z,59.60
2017-06-27T17:01:52.893Z,60.20
2017-06-27T17:04:20.367Z,60.80
2017-06-27T17:06:48.624Z,61.50
2017-06-27T17:09:16.097Z,61.40
2017-06-27T17:11:44.337Z,61.40
2017-06-27T17:14:11.833Z,61.40
2017-06-27T17:16:40.073Z,62.70
2017-06-27T17:19:07.541Z,62.70
2017-06-27T17:21:35.033Z,64.60
2017-06-27T17:24:02.500Z,66.50
2017-06-27T17:26:29.992Z,67.40
2017-06-27T17:28:57.481Z,69.50
2017-06-27T17:31:25.717Z,70.90
2017-06-27T17:33:53.185Z,70.30
2017-06-27T17:36:20.772Z,70.10
2017-06-27T17:38:49.011Z,69.10
2017-06-27T17:41:16.481Z,69.10
2017-06-27T17:43:44.373Z,71.40
2017-06-27T17:46:12.897Z,70.00
2017-06-27T17:48:40.369Z,69.90
2017-06-27T17:51:07.857Z,69.60
2017-06-27T17:53:35.324Z,70.30
2017-06-27T17:56:03.556Z,71.00
2017-06-27T17:58:31.045Z,70.90
2017-06-27T18:00:58.516Z,72.60
2017-06-27T18:03:26.753Z,70.40
2017-06-27T18:05:54.242Z,71.10
2017-06-27T18:08:22.800Z,71.30
2017-06-27T18:10:50.278Z,71.30
2017-06-27T18:13:18.808Z,70.40
2017-06-27T18:15:46.312Z,70.30
2017-06-27T18:18:13.973Z,69.80
2017-06-27T18:20:41.704Z,70.00
2017-06-27T18:23:09.177Z,70.10
2017-06-27T18:25:36.645Z,69.80
2017-06-27T18:28:04.146Z,70.20
2017-06-27T18:30:31.715Z,69.40
2017-06-27T18:32:59.197Z,69.00
2017-06-27T18:35:26.708Z,70.20
2017-06-27T18:37:54.186Z,70.40
2017-06-27T18:40:21.657Z,70.60
2017-06-27T18:42:49.149Z,68.90
2017-06-27T18:45:16.621Z,69.40
2017-06-27T18:47:45.629Z,69.40
2017-06-27T18:50:13.185Z,69.40
2017-06-27T18:52:40.725Z,70.50
2017-06-27T18:55:08.961Z,70.80
2017-06-27T18:57:36.464Z,70.40
2017-06-27T19:00:04.915Z,71.00
2017-06-27T19:02:32.391Z,70.90
2017-06-27T19:05:00.660Z,71.80
2017-06-27T19:07:28.133Z,71.10
2017-06-27T19:09:56.365Z,71.10
2017-06-27T19:12:23.961Z,71.10
2017-06-27T19:14:52.201Z,71.30
2017-06-27T19:17:19.668Z,71.30
2017-06-27T19:19:47.175Z,71.90
2017-06-27T19:22:14.647Z,71.80
2017-06-27T19:24:42.125Z,72.40
2017-06-27T19:27:09.628Z,72.50
2017-06-27T19:29:37.860Z,72.80
2017-06-27T19:32:05.341Z,72.80
2017-06-27T19:34:32.840Z,72.80
2017-06-27T19:37:00.309Z,73.00
2017-06-27T19:39:27.785Z,73.30
2017-06-27T19:41:55.325Z,73.80
2017-06-27T19:44:22.801Z,74.20
2017-06-27T19:46:50.265Z,74.00
2017-06-27T19:49:17.773Z,74.00
2017-06-27T19:51:45.241Z,74.00
2017-06-27T19:54:12.709Z,73.50
2017-06-27T19:56:40.241Z,73.90
2017-06-27T19:59:07.717Z,73.50
2017-06-27T20:01:35.189Z,73.60
2017-06-27T20:04:02.753Z,73.80
2017-06-27T20:06:30.223Z,73.10
2017-06-27T20:08:57.692Z,73.30
2017-06-27T20:11:25.196Z,73.90
2017-06-27T20:13:52.670Z,73.80
2017-06-27T20:16:20.436Z,72.80
2017-06-27T20:18:47.939Z,72.50
2017-06-27T20:21:15.654Z,71.40
2017-06-27T20:23:43.127Z,72.20
2017-06-27T20:26:10.885Z,71.50
2017-06-27T20:28:38.354Z,71.00
2017-06-27T20:31:05.821Z,70.80
2017-06-27T20:33:33.315Z,69.70
2017-06-27T20:36:00.799Z,69.50
2017-06-27T20:38:28.312Z,68.70
2017-06-27T20:40:56.648Z,68.40
2017-06-27T20:43:24.122Z,68.30
2017-06-27T20:45:51.596Z,68.50
2017-06-27T20:48:19.420Z,68.60
2017-06-27T20:50:46.888Z,67.60
2017-06-27T20:53:14.357Z,68.20
2017-06-27T20:55:41.849Z,67.60
2017-06-27T20:58:10.089Z,67.90
2017-06-27T21:00:37.576Z,67.90
2017-06-27T21:03:05.833Z,67.40
2017-06-27T21:05:33.305Z,67.30
2017-06-27T21:08:01.541Z,68.40
2017-06-27T21:10:29.029Z,68.40
2017-06-27T21:12:56.497Z,68.30
2017-06-27T21:15:24.733Z,67.80
2017-06-27T21:17:52.233Z,67.80
2017-06-27T21:20:20.476Z,69.20
2017-06-27T21:22:47.944Z,69.10
2017-06-27T21:25:15.444Z,69.50
2017-06-27T21:27:42.915Z,68.30
2017-06-27T21:30:10.386Z,68.10
2017-06-27T21:32:37.872Z,68.30
2017-06-27T21:35:05.341Z,68.10
2017-06-27T21:37:33.585Z,67.90
2017-06-27T21:40:01.328Z,67.90
2017-06-27T21:42:29.085Z,67.70
2017-06-27T21:44:56.552Z,67.80
2017-06-27T21:47:24.049Z,67.60
2017-06-27T21:49:51.519Z,67.60
2017-06-27T21:52:19.754Z,67.40
2017-06-27T21:54:47.249Z,67.40
2017-06-27T21:57:15.492Z,67.80
2017-06-27T21:59:42.965Z,67.80
2017-06-27T22:02:10.457Z,68.00
2017-06-27T22:04:37.928Z,68.20
2017-06-27T22:07:06.164Z,68.20
2017-06-27T22:09:36.705Z,68.60
2017-06-27T22:12:10.890Z,68.70
2017-06-27T22:14:45.210Z,68.70
2017-06-27T22:17:16.892Z,68.60
2017-06-27T22:19:51.227Z,68.70
2017-06-27T22:22:22.635Z,68.70
2017-06-27T22:24:51.162Z,68.80
2017-06-27T22:27:18.644Z,68.80
2017-06-27T22:29:46.392Z,68.80
2017-06-27T22:32:13.886Z,68.70
2017-06-27T22:34:41.356Z,68.80
2017-06-27T22:37:09.596Z,68.70
2017-06-27T22:39:37.230Z,68.60
2017-06-27T22:42:04.708Z,68.10
2017-06-27T22:44:32.181Z,68.40
2017-06-27T22:46:59.733Z,68.60
2017-06-27T22:49:27.205Z,68.60
2017-06-27T22:51:54.937Z,68.40
2017-06-27T22:54:22.429Z,68.90
2017-06-27T22:56:49.905Z,68.90
2017-06-27T22:59:18.144Z,68.90
2017-06-27T23:01:45.633Z,68.80
2017-06-27T23:04:13.873Z,69.00
2017-06-27T23:06:43.744Z,69.00
2017-06-27T23:09:13.693Z,69.00
2017-06-27T23:11:41.308Z,69.20
2017-06-27T23:14:09.541Z,69.00
2017-06-27T23:16:37.037Z,69.00
2017-06-27T23:19:05.276Z,68.80
2017-06-27T23:21:32.744Z,68.70
2017-06-27T23:24:00.233Z,69.00
2017-06-27T23:26:28.464Z,68.70
2017-06-27T23:28:55.934Z,68.60
2017-06-27T23:31:23.508Z,68.70
2017-06-27T23:33:51.745Z,68.80
2017-06-27T23:36:19.213Z,68.80
2017-06-27T23:38:46.704Z,68.90
2017-06-27T23:41:14.936Z,69.40
2017-06-27T23:43:42.408Z,69.40
2017-06-27T23:46:09.897Z,69.40
2017-06-27T23:48:38.129Z,69.80
2017-06-27T23:51:05.604Z,69.80
2017-06-27T23:53:33.177Z,70.20
2017-06-27T23:56:01.413Z,71.90
2017-06-27T23:58:28.893Z,71.40
